Time;durP1;ratioP1;P1;durP2;ratioP2;P2;SDS_P1;SDS_P2;PMS_P1;PMS_P2;Temp;Humidity;BMP_temperature;BMP_pressure;BME280_temperature;BME280_humidity;BME280_pressure;Samples;Min_cycle;Max_cycle;Signal;HPM_P1;HPM_P2
2021/12/30 00:02:29;;;;;;;26.33;18.50;;;5.10;99.90;;;;;;5015660;28;20538;-52
2021/12/30 00:04:55;;;;;;;24.10;17.97;;;5.10;99.90;;;;;;5015508;28;20475;-52
2021/12/30 00:07:22;;;;;;;21.17;15.77;;;5.10;99.90;;;;;;5015437;28;20467;-51
2021/12/30 00:09:49;;;;;;;22.40;16.50;;;4.90;99.90;;;;;;5014279;28;20518;-52
2021/12/30 00:12:15;;;;;;;26.47;17.80;;;4.80;99.90;;;;;;5015243;28;20451;-52
2021/12/30 00:14:42;;;;;;;23.93;17.57;;;4.70;99.90;;;;;;5014863;28;20530;-52
2021/12/30 00:17:10;;;;;;;20.27;14.73;;;4.70;99.90;;;;;;5015202;28;20984;-52
2021/12/30 00:19:36;;;;;;;26.70;18.80;;;4.70;99.90;;;;;;5015080;28;20539;-51
2021/12/30 00:22:04;;;;;;;20.90;15.90;;;4.70;99.90;;;;;;5014939;28;20527;-51
2021/12/30 00:24:31;;;;;;;20.40;15.90;;;4.70;99.90;;;;;;5015061;28;20482;-52
2021/12/30 00:26:58;;;;;;;27.13;17.60;;;4.70;99.90;;;;;;5015138;28;20483;-51
2021/12/30 00:29:25;;;;;;;27.33;19.27;;;4.80;99.90;;;;;;5014729;28;20538;-52
2021/12/30 00:31:52;;;;;;;30.00;19.87;;;4.80;99.90;;;;;;5015072;28;21011;-52
2021/12/30 00:34:20;;;;;;;26.03;18.70;;;4.80;99.90;;;;;;5015126;28;20502;-52
2021/12/30 00:36:47;;;;;;;25.63;18.40;;;4.90;99.90;;;;;;5014575;28;20555;-52
2021/12/30 00:39:13;;;;;;;23.53;18.03;;;4.90;99.90;;;;;;5014158;28;20908;-52
2021/12/30 00:41:40;;;;;;;21.13;17.60;;;4.90;99.90;;;;;;5014718;28;20530;-52
2021/12/30 00:44:06;;;;;;;25.60;19.20;;;4.90;99.90;;;;;;5014549;28;20526;-51
2021/12/30 00:46:33;;;;;;;22.70;16.80;;;4.90;99.90;;;;;;5014819;28;20559;-51
2021/12/30 00:49:00;;;;;;;22.43;17.30;;;4.90;99.90;;;;;;5014363;28;20530;-52
2021/12/30 00:51:27;;;;;;;20.67;15.70;;;4.80;99.90;;;;;;5014308;28;21125;-51
2021/12/30 00:53:54;;;;;;;19.90;14.00;;;4.80;99.90;;;;;;5013614;28;20482;-51
2021/12/30 00:56:21;;;;;;;21.13;16.20;;;4.80;99.90;;;;;;5014174;28;20506;-51
2021/12/30 00:58:48;;;;;;;27.50;16.93;;;4.70;99.90;;;;;;5014350;28;20534;-51
2021/12/30 01:01:14;;;;;;;22.07;17.20;;;4.70;99.90;;;;;;5013939;28;20448;-51
2021/12/30 01:03:41;;;;;;;23.30;18.10;;;4.80;99.90;;;;;;5014485;28;20549;-51
2021/12/30 01:06:08;;;;;;;20.93;16.93;;;4.80;99.90;;;;;;5013883;28;21076;-51
2021/12/30 01:08:36;;;;;;;21.80;16.57;;;4.80;99.90;;;;;;5013531;28;20538;-51
2021/12/30 01:11:07;;;;;;;19.33;16.17;;;4.80;99.90;;;;;;5014296;28;20575;-51
2021/12/30 01:13:39;;;;;;;17.83;14.60;;;4.80;99.90;;;;;;5014501;28;20521;-52
2021/12/30 01:16:15;;;;;;;17.70;15.10;;;4.80;99.90;;;;;;5014108;28;20529;-52
2021/12/30 01:18:54;;;;;;;17.13;14.07;;;4.60;99.90;;;;;;5013506;28;20462;-51
2021/12/30 01:21:22;;;;;;;19.90;15.83;;;4.50;99.90;;;;;;5013654;28;20462;-52
2021/12/30 01:23:49;;;;;;;19.57;14.27;;;4.60;99.90;;;;;;5014157;28;20871;-52
2021/12/30 01:26:16;;;;;;;13.67;12.23;;;4.80;99.90;;;;;;5013888;28;20551;-51
2021/12/30 01:28:43;;;;;;;19.27;15.17;;;4.80;99.90;;;;;;5013757;28;20447;-52
2021/12/30 01:31:10;;;;;;;17.03;14.00;;;4.80;99.90;;;;;;5013853;28;20479;-52
2021/12/30 01:33:38;;;;;;;15.60;13.80;;;4.80;99.90;;;;;;5013204;28;20535;-51
2021/12/30 01:36:05;;;;;;;17.33;14.70;;;4.70;99.90;;;;;;5013721;28;20551;-51
2021/12/30 01:38:32;;;;;;;16.20;13.93;;;4.90;99.90;;;;;;5013605;28;20476;-51
2021/12/30 01:41:01;;;;;;;15.03;13.63;;;4.90;99.90;;;;;;5013945;28;20479;-52
2021/12/30 01:43:28;;;;;;;15.53;13.87;;;5.00;99.90;;;;;;5013493;28;20949;-52
2021/12/30 01:45:56;;;;;;;18.23;14.53;;;5.00;99.90;;;;;;5013577;28;20905;-51
2021/12/30 01:48:23;;;;;;;16.10;13.40;;;5.00;99.90;;;;;;5012947;28;20547;-52
2021/12/30 01:50:50;;;;;;;16.40;14.30;;;4.90;99.90;;;;;;5013253;28;20571;-52
2021/12/30 01:53:16;;;;;;;17.03;13.90;;;5.00;99.90;;;;;;5013462;28;20509;-52
2021/12/30 01:55:45;;;;;;;14.10;12.60;;;5.00;99.90;;;;;;5013299;28;20567;-52
2021/12/30 01:58:13;;;;;;;15.10;13.50;;;4.90;99.90;;;;;;5012967;28;20452;-52
2021/12/30 02:00:43;;;;;;;15.50;14.00;;;4.80;99.90;;;;;;5013251;28;20888;-52
2021/12/30 02:03:10;;;;;;;15.70;14.00;;;4.90;99.90;;;;;;5013112;28;20538;-52
2021/12/30 02:05:38;;;;;;;17.63;14.37;;;5.00;99.90;;;;;;5012650;28;20546;-53
2021/12/30 02:08:05;;;;;;;16.00;14.20;;;5.10;99.90;;;;;;5012758;28;20448;-52
2021/12/30 02:10:32;;;;;;;16.60;13.30;;;5.10;99.90;;;;;;5013182;28;20526;-52
2021/12/30 02:12:59;;;;;;;16.57;14.60;;;5.10;99.90;;;;;;5013408;28;20491;-51
2021/12/30 02:15:26;;;;;;;15.57;13.97;;;5.10;99.90;;;;;;5012643;28;20503;-52
2021/12/30 02:17:54;;;;;;;13.87;12.40;;;5.00;99.90;;;;;;5012864;28;20526;-51
2021/12/30 02:20:45;;;;;;;18.07;14.10;;;5.10;99.90;;;;;;5012950;28;20452;-52
2021/12/30 02:23:14;;;;;;;13.87;12.40;;;5.10;99.90;;;;;;5012905;28;20444;-52
2021/12/30 02:25:41;;;;;;;14.70;13.20;;;5.20;99.90;;;;;;5012682;28;20491;-52
2021/12/30 02:28:09;;;;;;;15.43;13.80;;;5.20;99.90;;;;;;5012716;28;20523;-52
2021/12/30 02:30:36;;;;;;;20.33;13.83;;;5.20;99.90;;;;;;5012479;28;20483;-52
2021/12/30 02:33:03;;;;;;;15.13;13.60;;;5.20;99.90;;;;;;5012654;28;20526;-52
2021/12/30 02:35:31;;;;;;;17.00;13.90;;;5.20;99.90;;;;;;5012641;28;20554;-52
2021/12/30 02:38:00;;;;;;;15.13;12.80;;;5.20;99.90;;;;;;5010227;28;20542;-52
2021/12/30 02:40:28;;;;;;;14.43;12.57;;;5.40;99.90;;;;;;5012575;28;20447;-52
2021/12/30 02:42:55;;;;;;;16.83;14.30;;;5.40;99.90;;;;;;5012674;28;20463;-52
2021/12/30 02:45:22;;;;;;;16.70;14.83;;;5.40;99.90;;;;;;5011620;28;20853;-52
2021/12/30 02:47:48;;;;;;;15.13;13.20;;;5.40;99.90;;;;;;5012151;28;20547;-52
2021/12/30 02:50:15;;;;;;;13.60;12.20;;;5.50;99.90;;;;;;5012593;28;20456;-51
2021/12/30 02:52:42;;;;;;;19.13;13.63;;;5.50;99.90;;;;;;5011973;28;20530;-52
2021/12/30 02:55:10;;;;;;;14.73;13.00;;;5.50;99.90;;;;;;5012109;28;20905;-51
2021/12/30 02:57:37;;;;;;;14.90;12.93;;;5.50;99.90;;;;;;5011800;28;20486;-51
2021/12/30 03:00:07;;;;;;;15.70;14.10;;;5.60;99.90;;;;;;5012393;28;20444;-51
2021/12/30 03:02:36;;;;;;;15.30;13.70;;;5.60;99.90;;;;;;5012261;28;20857;-51
2021/12/30 03:05:04;;;;;;;15.80;13.40;;;5.60;99.90;;;;;;5011643;28;20507;-52
2021/12/30 03:07:30;;;;;;;14.27;12.87;;;5.60;99.90;;;;;;5011526;28;20510;-51
2021/12/30 03:09:57;;;;;;;14.90;13.40;;;5.60;99.90;;;;;;5012277;28;20505;-52
2021/12/30 03:12:25;;;;;;;15.67;14.07;;;5.70;99.90;;;;;;5012036;28;20526;-51
2021/12/30 03:14:51;;;;;;;16.17;13.73;;;5.70;99.90;;;;;;5012073;28;20467;-52
2021/12/30 03:17:18;;;;;;;14.90;12.50;;;5.70;99.90;;;;;;5011677;28;20480;-51
2021/12/30 03:19:44;;;;;;;15.43;13.83;;;5.70;99.90;;;;;;5011430;28;20475;-52
2021/12/30 03:22:12;;;;;;;13.77;12.17;;;5.80;99.90;;;;;;5011800;28;20996;-51
2021/12/30 03:24:38;;;;;;;14.83;13.03;;;5.80;99.90;;;;;;4993779;28;20543;-52
2021/12/30 03:27:06;;;;;;;13.30;11.97;;;5.80;99.90;;;;;;5011984;28;20539;-51
2021/12/30 03:29:34;;;;;;;17.83;14.10;;;5.80;99.90;;;;;;5011616;28;20959;-51
2021/12/30 03:32:00;;;;;;;13.90;12.50;;;5.80;99.90;;;;;;5012204;28;20484;-51
2021/12/30 03:34:27;;;;;;;12.47;11.27;;;5.90;99.90;;;;;;5011456;28;20476;-51
2021/12/30 03:36:54;;;;;;;13.07;11.77;;;5.90;89.60;;;;;;5012271;28;20458;-51
2021/12/30 03:39:21;;;;;;;13.97;11.97;;;6.00;92.60;;;;;;5011612;28;20882;-52
2021/12/30 03:41:47;;;;;;;13.43;11.27;;;5.90;94.40;;;;;;5011921;28;20440;-51
2021/12/30 03:44:14;;;;;;;13.87;10.80;;;6.00;83.10;;;;;;5011875;28;20487;-52
2021/12/30 03:46:42;;;;;;;11.83;10.63;;;6.10;69.70;;;;;;5011775;28;20498;-52
2021/12/30 03:49:09;;;;;;;12.73;11.20;;;6.10;77.80;;;;;;5011032;28;20451;-52
2021/12/30 03:51:39;;;;;;;11.57;10.40;;;6.10;85.10;;;;;;5011598;28;20471;-51
2021/12/30 03:54:08;;;;;;;11.10;9.80;;;6.10;83.70;;;;;;5011912;28;20452;-51
2021/12/30 03:56:35;;;;;;;13.07;10.60;;;6.10;81.30;;;;;;5016501;28;20471;-52
2021/12/30 03:59:03;;;;;;;12.57;11.27;;;6.10;81.10;;;;;;5011670;28;20902;-52
2021/12/30 04:01:30;;;;;;;10.70;9.63;;;6.10;82.40;;;;;;5011561;28;20490;-52
2021/12/30 04:03:59;;;;;;;11.17;10.13;;;6.20;72.60;;;;;;5011707;28;20513;-51
2021/12/30 04:06:27;;;;;;;10.63;9.70;;;6.20;75.40;;;;;;5011711;28;20898;-52
2021/12/30 04:08:54;;;;;;;13.33;9.60;;;6.20;76.30;;;;;;5011289;28;20451;-52
2021/12/30 04:11:23;;;;;;;9.47;8.47;;;6.20;72.40;;;;;;5011330;28;20514;-51
2021/12/30 04:13:50;;;;;;;9.83;8.87;;;6.30;65.40;;;;;;5011668;28;21041;-51
2021/12/30 04:16:18;;;;;;;9.33;8.50;;;6.40;51.20;;;;;;5011704;28;20467;-56
2021/12/30 04:18:45;;;;;;;10.13;9.13;;;6.40;62.00;;;;;;5022838;28;20478;-55
2021/12/30 04:21:13;;;;;;;10.70;9.33;;;6.40;62.50;;;;;;5031461;28;20455;-54
2021/12/30 04:23:40;;;;;;;12.67;9.17;;;6.40;60.60;;;;;;5027036;28;20847;-55
2021/12/30 04:26:07;;;;;;;16.93;10.70;;;6.40;51.40;;;;;;5010950;28;21009;-55
2021/12/30 04:28:33;;;;;;;10.33;9.33;;;6.50;42.60;;;;;;5012311;28;20447;-56
2021/12/30 04:31:00;;;;;;;12.47;10.30;;;6.50;47.00;;;;;;5014450;28;20475;-54
2021/12/30 04:33:27;;;;;;;12.40;10.90;;;6.60;38.90;;;;;;5014935;28;20486;-56
2021/12/30 04:35:56;;;;;;;14.53;13.00;;;6.60;38.80;;;;;;5014912;28;20898;-55
2021/12/30 04:38:24;;;;;;;13.10;10.80;;;6.60;42.00;;;;;;5014590;28;20502;-55
2021/12/30 04:40:50;;;;;;;13.73;11.33;;;6.60;32.20;;;;;;5014878;28;20459;-55
2021/12/30 04:43:17;;;;;;;17.70;11.63;;;6.70;28.30;;;;;;5014853;28;20479;-55
2021/12/30 04:45:46;;;;;;;22.53;12.60;;;6.70;32.00;;;;;;5018653;28;20844;-56
2021/12/30 04:48:13;;;;;;;19.53;13.37;;;6.70;28.50;;;;;;5025925;28;20807;-55
2021/12/30 04:50:40;;;;;;;25.90;14.40;;;6.70;28.30;;;;;;5034600;28;20512;-56
2021/12/30 04:53:06;;;;;;;20.77;13.10;;;6.70;27.00;;;;;;5014970;28;20573;-55
2021/12/30 04:55:35;;;;;;;23.63;14.03;;;6.80;24.90;;;;;;5014360;28;20479;-55
2021/12/30 04:58:01;;;;;;;20.83;14.33;;;6.80;96.50;;;;;;5014117;28;20452;-55
2021/12/30 05:00:28;;;;;;;19.97;14.50;;;6.80;94.00;;;;;;5013931;28;20459;-55
2021/12/30 05:03:08;;;;;;;21.10;14.67;;;6.80;80.30;;;;;;5014333;28;20444;-55
2021/12/30 05:05:37;;;;;;;22.80;14.90;;;6.90;99.90;;;;;;5014511;28;20973;-55
2021/12/30 05:08:05;;;;;;;28.60;16.00;;;6.90;92.90;;;;;;5014045;28;20471;-56
2021/12/30 05:10:32;;;;;;;20.40;14.70;;;6.90;99.90;;;;;;5013918;28;20996;-55
2021/12/30 05:13:00;;;;;;;20.23;15.30;;;6.90;99.90;;;;;;5014852;28;20549;-55
2021/12/30 05:15:26;;;;;;;29.83;16.27;;;6.90;99.90;;;;;;5014277;28;20973;-56
2021/12/30 05:17:53;;;;;;;21.70;15.10;;;6.90;99.90;;;;;;5013861;28;20878;-56
2021/12/30 05:20:19;;;;;;;27.67;15.23;;;7.00;99.90;;;;;;5014255;28;20452;-54
2021/12/30 05:22:46;;;;;;;23.13;14.80;;;7.00;99.90;;;;;;5014025;28;20490;-55
2021/12/30 05:25:14;;;;;;;33.97;17.33;;;7.00;99.90;;;;;;5013743;28;20520;-55
2021/12/30 05:27:41;;;;;;;28.30;16.30;;;7.00;99.90;;;;;;5013435;28;20483;-56
2021/12/30 05:30:12;;;;;;;26.70;17.07;;;7.00;99.90;;;;;;5013778;28;20498;-51
2021/12/30 05:32:39;;;;;;;17.40;14.90;;;7.00;99.90;;;;;;5013929;28;20515;-52
2021/12/30 05:35:07;;;;;;;30.17;15.33;;;7.00;99.90;;;;;;5013920;28;20549;-47
2021/12/30 05:37:34;;;;;;;25.87;16.40;;;7.00;99.90;;;;;;5013332;28;20448;-47
2021/12/30 05:40:01;;;;;;;31.30;16.80;;;7.00;99.90;;;;;;5013047;28;20451;-48
2021/12/30 05:42:28;;;;;;;44.37;17.17;;;7.00;99.90;;;;;;5013430;28;20475;-47
2021/12/30 05:44:55;;;;;;;25.77;16.33;;;7.10;99.90;;;;;;5013417;28;20499;-49
2021/12/30 05:47:23;;;;;;;24.93;17.47;;;7.10;99.90;;;;;;5013489;28;21084;-46
2021/12/30 05:49:50;;;;;;;27.13;17.60;;;7.10;99.90;;;;;;5013371;28;20444;-47
2021/12/30 05:52:17;;;;;;;40.60;18.27;;;7.10;99.90;;;;;;5013185;28;20542;-48
2021/12/30 05:54:44;;;;;;;24.67;16.20;;;7.10;99.90;;;;;;5013163;28;20479;-47
2021/12/30 05:57:11;;;;;;;27.63;16.83;;;7.20;99.90;;;;;;5012838;28;20479;-48
2021/12/30 05:59:39;;;;;;;26.13;16.27;;;7.20;99.90;;;;;;5012991;28;20479;-49
2021/12/30 06:02:06;;;;;;;25.93;16.20;;;7.20;99.90;;;;;;5013236;28;20921;-49
2021/12/30 06:04:33;;;;;;;26.93;16.67;;;7.20;99.90;;;;;;5013085;28;20494;-47
2021/12/30 06:07:00;;;;;;;27.87;16.50;;;7.30;99.90;;;;;;5012957;28;20491;-49
2021/12/30 06:09:27;;;;;;;22.10;16.10;;;7.20;99.90;;;;;;5012443;28;20471;-47
2021/12/30 06:11:54;;;;;;;34.20;17.20;;;7.20;99.90;;;;;;5012717;28;20480;-49
2021/12/30 06:14:20;;;;;;;28.50;16.57;;;7.30;99.90;;;;;;5013153;28;20486;-48
2021/12/30 06:16:47;;;;;;;30.03;16.40;;;7.30;99.90;;;;;;5012944;28;20491;-48
2021/12/30 06:19:13;;;;;;;25.83;15.40;;;7.30;99.90;;;;;;5005817;28;20495;-46
2021/12/30 06:21:41;;;;;;;23.83;15.00;;;7.30;99.90;;;;;;5012835;28;20535;-55
2021/12/30 06:24:08;;;;;;;28.07;15.10;;;7.30;99.90;;;;;;5012702;28;20507;-55
2021/12/30 06:26:35;;;;;;;32.27;15.20;;;7.30;99.90;;;;;;5012697;28;20506;-55
2021/12/30 06:29:01;;;;;;;27.87;14.87;;;7.30;99.90;;;;;;5012710;28;20864;-55
2021/12/30 06:31:28;;;;;;;40.63;15.87;;;7.30;99.90;;;;;;5012630;28;20502;-55
2021/12/30 06:33:54;;;;;;;25.33;15.10;;;7.30;99.90;;;;;;5012441;28;20486;-55
2021/12/30 06:36:21;;;;;;;25.63;15.73;;;7.30;99.90;;;;;;5012581;28;20514;-56
2021/12/30 06:38:50;;;;;;;25.57;16.20;;;7.30;99.90;;;;;;5011654;28;20450;-56
2021/12/30 06:41:17;;;;;;;24.50;15.57;;;7.30;99.90;;;;;;5012374;28;20479;-55
2021/12/30 06:43:44;;;;;;;31.50;16.10;;;7.30;99.90;;;;;;5012663;28;20478;-55
2021/12/30 06:46:11;;;;;;;28.17;15.50;;;7.30;99.90;;;;;;5012577;28;20522;-55
2021/12/30 06:48:38;;;;;;;21.57;15.00;;;7.30;99.90;;;;;;5011734;28;20510;-55
2021/12/30 06:51:05;;;;;;;24.37;14.50;;;7.20;99.90;;;;;;5011625;28;20452;-55
2021/12/30 06:53:34;;;;;;;25.33;15.10;;;7.20;99.90;;;;;;5011914;28;20486;-51
2021/12/30 06:56:01;;;;;;;20.30;14.30;;;7.10;99.90;;;;;;5012032;28;20989;-52
2021/12/30 06:58:29;;;;;;;22.90;16.10;;;7.10;99.90;;;;;;5012183;28;20501;-51
2021/12/30 07:00:57;;;;;;;41.60;16.27;;;7.00;99.90;;;;;;5012158;28;20826;-52
2021/12/30 07:03:24;;;;;;;25.57;15.63;;;6.90;99.90;;;;;;5012310;28;20886;-52
2021/12/30 07:05:54;;;;;;;31.33;14.57;;;6.80;99.90;;;;;;5011799;28;20530;-52
2021/12/30 07:08:21;;;;;;;23.37;13.53;;;6.70;99.90;;;;;;5011553;28;20539;-47
2021/12/30 07:10:48;;;;;;;18.07;14.07;;;6.70;99.90;;;;;;5012277;28;20587;-52
2021/12/30 07:13:17;;;;;;;21.33;13.80;;;6.70;99.90;;;;;;5012215;28;20479;-51
2021/12/30 07:15:43;;;;;;;18.97;12.87;;;6.60;99.90;;;;;;5011369;28;20905;-53
2021/12/30 07:18:10;;;;;;;19.13;13.70;;;6.60;99.90;;;;;;5011902;28;20479;-51
2021/12/30 07:20:37;;;;;;;18.80;12.50;;;6.60;99.90;;;;;;5009116;28;20499;-51
2021/12/30 07:23:03;;;;;;;19.57;12.10;;;6.70;99.90;;;;;;5011783;28;20510;-51
2021/12/30 07:25:30;;;;;;;24.67;12.70;;;6.70;99.90;;;;;;5012099;28;20522;-52
2021/12/30 07:27:57;;;;;;;25.53;13.87;;;6.70;99.90;;;;;;5011607;28;20871;-52
2021/12/30 07:30:26;;;;;;;22.73;13.40;;;6.70;99.90;;;;;;5011519;28;20475;-51
2021/12/30 07:32:54;;;;;;;22.27;12.60;;;6.80;99.90;;;;;;5011865;28;20909;-52
2021/12/30 07:35:21;;;;;;;30.07;12.50;;;6.90;99.90;;;;;;5011212;28;20567;-52
2021/12/30 07:37:49;;;;;;;33.20;13.10;;;6.90;99.90;;;;;;5011772;28;20476;-52
2021/12/30 07:40:16;;;;;;;21.43;11.87;;;6.90;99.90;;;;;;5011982;28;20475;-51
2021/12/30 07:42:43;;;;;;;30.67;13.60;;;6.90;99.90;;;;;;5011539;28;20476;-52
2021/12/30 07:45:11;;;;;;;32.00;14.80;;;6.90;99.90;;;;;;5011693;28;20541;-52
2021/12/30 07:47:39;;;;;;;28.07;14.90;;;7.00;99.90;;;;;;5011115;28;20483;-52
2021/12/30 07:50:07;;;;;;;23.80;13.13;;;7.00;99.90;;;;;;5011132;28;20483;-52
2021/12/30 07:52:34;;;;;;;29.20;12.80;;;7.00;99.90;;;;;;5011726;28;20511;-51
2021/12/30 07:55:01;;;;;;;19.60;12.00;;;7.00;99.90;;;;;;5011563;28;20491;-51
2021/12/30 07:57:29;;;;;;;19.67;9.77;;;6.90;99.90;;;;;;5011102;28;20443;-51
2021/12/30 07:59:56;;;;;;;22.70;9.73;;;6.90;99.90;;;;;;5011631;28;20466;-52
2021/12/30 08:02:23;;;;;;;19.53;10.63;;;6.90;99.90;;;;;;5010945;28;20446;-51
2021/12/30 08:04:51;;;;;;;17.37;11.23;;;7.00;99.90;;;;;;5014491;28;20518;-51
2021/12/30 08:07:21;;;;;;;30.83;11.37;;;7.00;99.90;;;;;;5012397;28;20857;-51
2021/12/30 08:09:48;;;;;;;19.47;11.90;;;7.00;99.90;;;;;;5014967;28;20451;-50
2021/12/30 08:12:15;;;;;;;18.07;11.50;;;6.90;99.90;;;;;;5015152;28;20475;-51
2021/12/30 08:14:41;;;;;;;22.87;12.37;;;6.80;99.90;;;;;;5015101;28;20483;-51
2021/12/30 08:17:08;;;;;;;63.73;10.37;;;6.80;99.90;;;;;;5014740;28;20490;-50
2021/12/30 08:19:35;;;;;;;46.83;10.43;;;6.70;99.90;;;;;;5015146;28;20471;-51
2021/12/30 08:22:03;;;;;;;39.53;9.90;;;6.70;99.90;;;;;;5015389;28;20455;-50
2021/12/30 08:24:30;;;;;;;21.20;8.80;;;6.60;99.90;;;;;;5014946;28;20497;-46
2021/12/30 08:26:58;;;;;;;18.53;10.30;;;6.50;99.90;;;;;;5014990;28;20451;-51
2021/12/30 08:29:25;;;;;;;22.30;11.40;;;6.30;99.90;;;;;;5014303;28;20448;-51
2021/12/30 08:31:52;;;;;;;19.90;12.30;;;6.40;99.90;;;;;;5014686;28;20510;-51
2021/12/30 08:34:18;;;;;;;15.37;11.50;;;6.50;99.90;;;;;;5014796;28;20577;-50
2021/12/30 08:36:45;;;;;;;27.80;12.70;;;6.60;99.90;;;;;;5014865;28;20993;-47
2021/12/30 08:39:13;;;;;;;17.60;11.40;;;6.60;99.90;;;;;;5013597;28;20459;-47
2021/12/30 08:41:40;;;;;;;60.60;11.70;;;6.70;99.90;;;;;;4995284;28;20464;-46
2021/12/30 08:44:07;;;;;;;14.80;10.10;;;6.70;99.90;;;;;;4995003;28;20827;-46
2021/12/30 08:46:33;;;;;;;9.17;8.37;;;6.60;99.90;;;;;;4995153;28;20500;-48
2021/12/30 08:49:00;;;;;;;14.37;11.10;;;6.60;99.90;;;;;;4994990;28;20445;-54
2021/12/30 08:51:26;;;;;;;19.67;11.37;;;6.50;99.90;;;;;;4997718;28;20490;-55
2021/12/30 08:53:53;;;;;;;13.83;8.50;;;6.50;99.90;;;;;;5011990;28;20507;-55
2021/12/30 08:56:21;;;;;;;8.73;7.83;;;6.40;99.90;;;;;;5028713;28;20478;-51
2021/12/30 08:58:49;;;;;;;12.27;10.20;;;6.40;99.90;;;;;;5034032;28;20458;-51
2021/12/30 09:01:15;;;;;;;15.70;9.07;;;6.40;99.90;;;;;;5034235;28;20478;-51
2021/12/30 09:03:42;;;;;;;20.77;11.20;;;6.40;99.90;;;;;;5037621;28;20439;-50
2021/12/30 09:06:08;;;;;;;18.90;11.00;;;6.50;99.90;;;;;;5030986;28;20499;-50
2021/12/30 09:08:35;;;;;;;20.87;10.77;;;6.60;99.90;;;;;;5016462;28;21009;-52
2021/12/30 09:11:02;;;;;;;26.47;11.23;;;6.70;99.90;;;;;;5025589;28;20435;-52
2021/12/30 09:13:30;;;;;;;16.77;11.27;;;6.80;99.90;;;;;;5033809;28;20556;-52
2021/12/30 09:15:56;;;;;;;21.90;11.93;;;6.90;99.90;;;;;;5033631;28;20503;-51
2021/12/30 09:18:24;;;;;;;14.70;9.73;;;7.10;99.90;;;;;;5033782;28;20443;-51
2021/12/30 09:20:51;;;;;;;17.33;10.70;;;7.20;99.90;;;;;;5023865;28;20452;-51
2021/12/30 09:23:18;;;;;;;24.10;12.17;;;7.30;99.90;;;;;;5014016;28;20443;-51
2021/12/30 09:25:44;;;;;;;22.50;12.20;;;7.40;99.90;;;;;;5013929;28;20530;-53
2021/12/30 09:28:12;;;;;;;22.03;11.00;;;7.50;99.90;;;;;;5014050;28;20487;-48
2021/12/30 09:30:42;;;;;;;26.03;10.93;;;7.60;99.90;;;;;;5021996;28;20940;-46
2021/12/30 09:33:09;;;;;;;29.07;11.93;;;7.70;99.90;;;;;;5012849;28;20522;-47
2021/12/30 09:35:36;;;;;;;28.27;12.90;;;7.70;99.90;;;;;;5013757;28;20476;-47
2021/12/30 09:38:03;;;;;;;18.23;11.90;;;7.80;99.90;;;;;;5013508;28;20448;-47
2021/12/30 09:40:30;;;;;;;27.03;11.43;;;7.90;99.90;;;;;;5013800;28;20475;-46
2021/12/30 09:43:01;;;;;;;25.83;11.33;;;7.90;99.90;;;;;;5013773;28;20911;-49
2021/12/30 09:45:29;;;;;;;28.53;10.90;;;7.90;99.90;;;;;;5013729;28;20467;-48
2021/12/30 09:47:59;;;;;;;18.73;10.07;;;8.00;99.90;;;;;;5012579;28;20452;-46
2021/12/30 09:50:27;;;;;;;25.03;11.90;;;8.00;99.90;;;;;;5013552;28;20451;-47
2021/12/30 09:52:55;;;;;;;24.13;12.00;;;8.10;99.90;;;;;;5013381;28;21055;-47
2021/12/30 09:55:22;;;;;;;19.60;10.03;;;8.20;99.90;;;;;;5013906;28;20553;-55
2021/12/30 09:57:49;;;;;;;24.77;11.47;;;8.20;99.90;;;;;;5013401;28;20458;-56
2021/12/30 10:00:16;;;;;;;22.57;10.60;;;8.30;99.90;;;;;;5013583;28;20471;-56
2021/12/30 10:02:45;;;;;;;29.87;12.10;;;8.30;99.90;;;;;;5012720;28;20507;-56
2021/12/30 10:05:16;;;;;;;29.70;11.97;;;8.30;99.90;;;;;;5013080;28;20503;-56
2021/12/30 10:07:42;;;;;;;25.97;11.87;;;8.30;99.90;;;;;;5013186;28;20451;-51
2021/12/30 10:10:28;;;;;;;35.60;11.80;;;8.30;99.90;;;;;;5013251;28;20515;-51
2021/12/30 10:12:55;;;;;;;21.93;11.10;;;8.30;99.90;;;;;;5013110;28;20448;-50
2021/12/30 10:15:24;;;;;;;30.13;12.00;;;8.30;99.90;;;;;;5013075;28;20495;-52
2021/12/30 10:17:55;;;;;;;24.70;11.10;;;8.30;99.90;;;;;;5012472;28;20455;-50
2021/12/30 10:20:27;;;;;;;27.50;10.80;;;8.30;99.90;;;;;;5012625;28;20456;-50
2021/12/30 10:22:55;;;;;;;24.63;11.90;;;8.30;99.90;;;;;;5013013;28;20443;-51
2021/12/30 10:25:30;;;;;;;18.93;10.47;;;8.30;99.90;;;;;;5012634;28;20503;-51
2021/12/30 10:27:57;;;;;;;24.10;11.20;;;8.30;99.90;;;;;;5012629;28;20889;-51
2021/12/30 10:30:32;;;;;;;36.30;11.50;;;8.30;99.90;;;;;;5012564;28;20479;-51
2021/12/30 10:33:11;;;;;;;28.43;12.17;;;8.40;99.90;;;;;;5012740;28;20661;-52
2021/12/30 10:35:39;;;;;;;22.17;10.30;;;8.40;99.90;;;;;;5012560;28;20472;-50
2021/12/30 10:38:10;;;;;;;19.83;9.70;;;8.40;99.90;;;;;;5012245;28;20444;-51
2021/12/30 10:40:40;;;;;;;27.30;9.90;;;8.40;99.90;;;;;;5015057;28;20525;-47
2021/12/30 10:43:27;;;;;;;29.63;13.03;;;8.40;99.90;;;;;;5013098;28;20452;-48
2021/12/30 10:46:09;;;;;;;25.03;9.60;;;8.40;99.90;;;;;;5006587;28;20487;-47
2021/12/30 10:48:50;;;;;;;22.10;9.93;;;8.50;99.90;;;;;;5011990;28;20483;-51
2021/12/30 10:51:22;;;;;;;20.60;10.37;;;8.50;99.90;;;;;;5012065;28;20471;-47
2021/12/30 10:53:50;;;;;;;29.00;10.87;;;8.50;99.90;;;;;;4993222;28;20495;-53
2021/12/30 10:56:26;;;;;;;28.47;11.10;;;8.50;99.90;;;;;;5004859;28;20479;-47
2021/12/30 10:58:55;;;;;;;23.90;11.00;;;8.50;99.90;;;;;;5012160;28;20478;-55
2021/12/30 11:01:24;;;;;;;27.00;10.93;;;8.50;99.90;;;;;;5012178;28;20452;-52
2021/12/30 11:03:58;;;;;;;20.13;9.37;;;8.50;99.90;;;;;;5012197;28;20937;-52
2021/12/30 11:06:27;;;;;;;20.27;8.93;;;8.60;99.90;;;;;;5011995;28;20506;-51
2021/12/30 11:09:21;;;;;;;21.67;9.40;;;8.60;99.90;;;;;;5011697;28;20456;-52
2021/12/30 11:11:51;;;;;;;25.83;9.90;;;8.60;99.90;;;;;;4978479;28;20464;-51
2021/12/30 11:14:20;;;;;;;24.00;10.07;;;8.60;99.90;;;;;;5012645;28;20538;-52
2021/12/30 11:17:14;;;;;;;39.07;9.40;;;8.60;99.90;;;;;;5011913;28;20971;-52
2021/12/30 11:19:43;;;;;;;21.70;8.67;;;8.60;99.90;;;;;;4994270;28;20479;-51
2021/12/30 11:22:14;;;;;;;24.17;9.17;;;8.60;99.90;;;;;;5011733;28;20443;-56
2021/12/30 11:24:41;;;;;;;16.73;9.30;;;8.70;99.90;;;;;;5012151;28;20479;-48
2021/12/30 11:27:10;;;;;;;25.67;9.67;;;8.60;99.90;;;;;;5012237;28;20475;-47
2021/12/30 11:29:38;;;;;;;23.47;10.20;;;8.70;99.90;;;;;;5011694;28;20897;-47
2021/12/30 11:32:07;;;;;;;30.30;10.47;;;8.70;99.90;;;;;;5012060;28;20475;-52
2021/12/30 11:34:35;;;;;;;24.30;9.07;;;8.70;99.90;;;;;;5011835;28;20483;-52
2021/12/30 11:37:02;;;;;;;28.33;9.90;;;8.70;99.90;;;;;;5012090;28;20490;-52
2021/12/30 11:39:30;;;;;;;25.73;9.97;;;8.70;99.90;;;;;;5014967;28;20483;-52
2021/12/30 11:42:00;;;;;;;21.80;9.60;;;8.80;99.90;;;;;;5015887;28;20471;-52
2021/12/30 11:44:35;;;;;;;25.60;10.30;;;8.80;99.90;;;;;;5015868;28;20471;-56
2021/12/30 11:47:04;;;;;;;24.70;9.90;;;8.70;99.90;;;;;;5015712;28;20454;-55
2021/12/30 11:49:50;;;;;;;18.43;10.37;;;8.70;99.90;;;;;;5015440;28;20450;-56
2021/12/30 11:52:48;;;;;;;23.10;9.70;;;8.80;99.90;;;;;;5015618;28;20509;-46
2021/12/30 11:55:50;;;;;;;19.33;11.17;;;8.80;99.90;;;;;;5014971;28;20553;-48
2021/12/30 11:58:48;;;;;;;22.03;9.50;;;8.80;99.90;;;;;;5009696;28;20487;-47
2021/12/30 12:01:34;;;;;;;24.20;10.40;;;8.80;99.90;;;;;;5015479;28;20451;-46
2021/12/30 12:04:05;;;;;;;25.20;10.93;;;8.80;99.90;;;;;;5015363;28;20452;-47
2021/12/30 12:06:35;;;;;;;23.50;10.30;;;8.80;99.90;;;;;;5015607;28;20471;-46
2021/12/30 12:09:05;;;;;;;26.27;11.63;;;8.80;99.90;;;;;;5015091;28;20447;-48
2021/12/30 12:11:45;;;;;;;23.60;8.80;;;8.80;99.90;;;;;;5014891;28;20496;-47
2021/12/30 12:14:13;;;;;;;31.90;9.43;;;8.80;99.90;;;;;;5015101;28;20515;-48
2021/12/30 12:16:47;;;;;;;24.67;9.50;;;8.80;99.90;;;;;;5015317;28;20510;-46
2021/12/30 12:19:16;;;;;;;31.43;10.57;;;8.80;99.90;;;;;;5014896;28;20447;-47
2021/12/30 12:21:45;;;;;;;18.90;8.97;;;8.80;99.90;;;;;;5015150;28;20479;-48
2021/12/30 12:24:32;;;;;;;14.53;9.57;;;8.80;99.90;;;;;;5015116;28;20478;-47
2021/12/30 12:27:02;;;;;;;33.73;10.97;;;8.80;99.90;;;;;;5014624;28;21185;-48
2021/12/30 12:29:30;;;;;;;29.97;11.47;;;8.80;99.90;;;;;;5014472;28;20471;-47
2021/12/30 12:32:00;;;;;;;27.97;10.30;;;8.80;99.90;;;;;;5015082;28;20456;-47
2021/12/30 12:34:39;;;;;;;25.30;10.37;;;8.80;99.90;;;;;;5014505;28;20483;-46
2021/12/30 12:37:47;;;;;;;21.87;10.00;;;8.80;99.90;;;;;;5014905;28;20518;-47
2021/12/30 12:40:22;;;;;;;28.70;10.80;;;8.80;99.90;;;;;;5014632;28;20933;-46
2021/12/30 12:42:58;;;;;;;29.43;11.67;;;8.90;99.90;;;;;;5014832;28;20478;-48
2021/12/30 12:45:27;;;;;;;22.43;9.53;;;8.90;99.90;;;;;;5014120;28;20472;-47
2021/12/30 12:48:23;;;;;;;30.70;9.90;;;8.90;99.90;;;;;;5014261;28;20471;-55